Time;durP1;ratioP1;P1;durP2;ratioP2;P2;SDS_P1;SDS_P2;PMS_P1;PMS_P2;Temp;Humidity;BMP_temperature;BMP_pressure;BME280_temperature;BME280_humidity;BME280_pressure;Samples;Min_cycle;Max_cycle;Signal;HPM_P1;HPM_P2
2023/08/21 00:02:05;;;;;;;7.67;6.70;;;25.00;91.80;;;;;;6222384;22;20395;-83
2023/08/21 00:05:07;;;;;;;6.87;6.23;;;26.00;93.00;;;;;;6237184;23;20578;-84
2023/08/21 00:08:28;;;;;;;7.37;6.67;;;25.50;93.30;;;;;;6219544;22;20449;-84
2023/08/21 00:11:06;;;;;;;7.40;6.70;;;25.60;93.60;;;;;;6224515;22;20762;-83
2023/08/21 00:13:49;;;;;;;8.13;7.43;;;25.80;94.50;;;;;;6244988;22;20414;-83
2023/08/21 00:16:59;;;;;;;7.70;7.00;;;25.60;94.10;;;;;;6246453;22;20506;-84
2023/08/21 00:20:10;;;;;;;7.83;7.13;;;25.50;94.80;;;;;;6250854;22;20406;-83
2023/08/21 00:23:39;;;;;;;;;;;;;;;;;;;;;
2023/08/21 00:29:40;;;;;;;6.80;6.20;;;25.50;95.90;;;;;;6219983;22;20503;-82
2023/08/21 00:33:08;;;;;;;7.60;6.90;;;24.80;96.30;;;;;;6238649;23;20440;-83
2023/08/21 00:36:44;;;;;;;7.30;6.60;;;25.70;97.00;;;;;;6196573;23;20431;-80
2023/08/21 00:39:37;;;;;;;8.57;7.70;;;25.90;97.40;;;;;;6153010;23;20420;-83
2023/08/21 00:42:56;;;;;;;7.60;6.90;;;25.50;97.70;;;;;;6154112;23;20402;-83
2023/08/21 00:46:05;;;;;;;8.27;7.47;;;25.30;98.00;;;;;;6057704;23;20392;-84
2023/08/21 00:49:28;;;;;;;8.90;8.23;;;25.50;98.20;;;;;;6156432;23;20366;-83
2023/08/21 00:52:50;;;;;;;8.93;8.07;;;26.00;98.80;;;;;;6157188;23;20430;-83
2023/08/21 00:55:55;;;;;;;8.30;7.60;;;25.30;99.20;;;;;;6158207;23;20414;-83
2023/08/21 00:58:52;;;;;;;8.73;8.00;;;25.30;99.30;;;;;;6158865;23;20401;-83
2023/08/21 01:01:50;;;;;;;8.43;7.73;;;25.40;99.20;;;;;;6157978;23;20441;-83
2023/08/21 01:04:56;;;;;;;8.80;8.00;;;25.30;99.50;;;;;;6141927;23;20432;-83
2023/08/21 01:08:08;;;;;;;8.70;7.80;;;25.30;99.60;;;;;;6040584;23;21039;-83
2023/08/21 01:15:04;;;;;;;7.73;6.80;;;25.50;98.40;;;;;;6081402;23;20409;-83
2023/08/21 01:18:12;;;;;;;7.83;7.23;;;25.60;98.50;;;;;;6052608;23;20488;-82
2023/08/21 01:21:44;;;;;;;7.70;7.07;;;25.60;98.20;;;;;;6082521;23;20709;-82
2023/08/21 01:24:34;;;;;;;6.73;6.20;;;25.50;97.40;;;;;;6049914;23;20413;-83
2023/08/21 01:27:34;;;;;;;6.70;5.93;;;25.10;98.10;;;;;;6134559;22;20576;-83
2023/08/21 01:30:27;;;;;;;;;;;;;;;;;;;;;
2023/08/21 01:33:31;;;;;;;6.60;6.00;;;24.80;98.20;;;;;;6268222;22;20402;-83
2023/08/21 01:36:26;;;;;;;7.77;6.97;;;24.70;98.20;;;;;;6250863;22;20388;-84
2023/08/21 01:39:49;;;;;;;7.10;6.47;;;24.80;98.00;;;;;;6249721;22;20871;-85
2023/08/21 01:42:55;;;;;;;6.50;5.90;;;24.60;97.90;;;;;;6128924;23;20416;-84
2023/08/21 01:45:46;;;;;;;6.87;5.97;;;25.10;97.80;;;;;;6091682;23;20400;-83
2023/08/21 01:48:40;;;;;;;6.57;5.97;;;24.50;97.40;;;;;;6119191;23;20498;-83
2023/08/21 01:51:39;;;;;;;6.77;6.10;;;25.00;97.70;;;;;;6127429;23;20415;-82
2023/08/21 01:54:42;;;;;;;;;;;;;;;;;;;;;
2023/08/21 01:57:53;;;;;;;8.00;7.10;;;24.20;98.50;;;;;;6144294;23;20528;-83
2023/08/21 02:00:50;;;;;;;8.27;7.57;;;25.10;98.20;;;;;;6091059;23;20426;-83
2023/08/21 02:03:35;;;;;;;10.13;7.40;;;24.90;98.80;;;;;;6145957;23;20403;-83
2023/08/21 02:06:44;;;;;;;7.83;7.07;;;24.80;98.90;;;;;;6126974;23;20434;-81
2023/08/21 02:12:33;;;;;;;8.37;7.57;;;24.70;98.20;;;;;;6278873;22;20446;-82
2023/08/21 02:16:02;;;;;;;6.43;5.83;;;24.90;98.90;;;;;;6260474;22;20415;-84
2023/08/21 02:21:50;;;;;;;6.47;5.87;;;24.50;97.80;;;;;;6251122;22;20470;-82
2023/08/21 02:24:46;;;;;;;6.60;6.00;;;24.70;96.80;;;;;;6246656;22;20928;-81
2023/08/21 02:27:44;;;;;;;;;;;;;;;;;;;;;
2023/08/21 02:31:12;;;;;;;6.57;5.93;;;24.90;96.90;;;;;;6274378;22;20396;-84
2023/08/21 02:34:18;;;;;;;6.17;5.60;;;24.50;97.10;;;;;;6273573;22;20390;-86
2023/08/21 02:37:43;;;;;;;;;;;;;;;;;;;;;
2023/08/21 02:40:54;;;;;;;6.13;5.50;;;24.10;97.50;;;;;;6275285;22;20446;-85
2023/08/21 02:43:42;;;;;;;6.70;5.83;;;24.10;98.00;;;;;;6269670;22;20506;-84
2023/08/21 02:46:44;;;;;;;;;;;;;;;;;;;;;
2023/08/21 02:49:22;;;;;;;6.13;5.50;;;23.80;98.50;;;;;;6271833;22;21244;-84
2023/08/21 02:52:06;;;;;;;6.57;5.97;;;23.70;98.30;;;;;;6273336;22;20394;-82
2023/08/21 02:55:09;;;;;;;6.90;6.30;;;24.00;98.40;;;;;;6265503;22;20445;-83
2023/08/21 02:57:59;;;;;;;6.43;5.87;;;24.30;98.20;;;;;;6264955;22;20470;-82
2023/08/21 03:01:09;;;;;;;5.83;5.03;;;23.70;99.10;;;;;;6283403;22;20435;-84
2023/08/21 03:03:56;;;;;;;6.00;5.50;;;24.30;98.80;;;;;;6278774;22;20437;-85
2023/08/21 03:06:50;;;;;;;5.87;5.17;;;24.10;98.90;;;;;;6277940;22;20414;-84
2023/08/21 03:09:45;;;;;;;5.60;5.13;;;23.70;99.20;;;;;;6266448;22;20396;-83
2023/08/21 03:12:31;;;;;;;;;;;;;;;;;;;;;
2023/08/21 03:16:04;;;;;;;5.30;4.90;;;23.80;99.60;;;;;;6286687;22;20413;-84
2023/08/21 03:22:28;;;;;;;6.17;5.30;;;23.70;99.20;;;;;;6193626;22;20427;-84
2023/08/21 03:25:31;;;;;;;7.00;5.83;;;23.90;99.40;;;;;;6269417;22;20415;-86
2023/08/21 03:31:20;;;;;;;6.67;6.07;;;24.00;99.30;;;;;;6233730;22;20558;-82
2023/08/21 03:34:17;;;;;;;7.43;6.47;;;23.90;99.00;;;;;;6192797;23;20400;-82
2023/08/21 03:37:24;;;;;;;6.70;6.20;;;23.70;99.30;;;;;;6218053;23;20412;-82
2023/08/21 03:43:28;;;;;;;8.50;7.13;;;23.80;99.50;;;;;;6239484;22;20408;-82
2023/08/21 03:46:38;;;;;;;6.97;6.30;;;23.50;99.90;;;;;;6211775;22;20400;-84
2023/08/21 03:49:23;;;;;;;8.27;7.57;;;23.80;99.90;;;;;;6201045;23;20434;-81
2023/08/21 03:55:26;;;;;;;8.17;7.17;;;23.70;99.60;;;;;;6195661;23;20403;-82
2023/08/21 03:58:27;;;;;;;8.60;8.00;;;23.90;99.70;;;;;;6197968;23;20472;-84
2023/08/21 04:01:15;;;;;;;7.60;6.90;;;24.00;99.70;;;;;;6213548;23;20405;-82
2023/08/21 04:04:20;;;;;;;7.70;6.90;;;24.00;99.90;;;;;;6200971;23;20394;-84
2023/08/21 04:07:44;;;;;;;7.40;6.70;;;23.40;99.90;;;;;;6200018;23;20425;-81
2023/08/21 04:10:41;;;;;;;8.43;6.63;;;23.50;99.90;;;;;;6238596;22;20400;-83
2023/08/21 04:13:31;;;;;;;7.60;6.90;;;23.40;99.90;;;;;;6240126;22;20416;-81
2023/08/21 04:16:20;;;;;;;7.10;6.40;;;23.10;99.90;;;;;;6212586;23;20401;-82
2023/08/21 04:19:11;;;;;;;10.43;6.43;;;23.40;99.90;;;;;;6208510;23;20436;-83
2023/08/21 04:22:05;;;;;;;6.30;5.73;;;23.70;99.30;;;;;;6211110;22;20406;-84
2023/08/21 04:24:41;;;;;;;8.90;6.20;;;23.50;99.30;;;;;;6211559;22;20480;-83
2023/08/21 04:27:31;;;;;;;6.90;6.20;;;23.50;99.60;;;;;;6212598;22;20417;-84
2023/08/21 04:30:59;;;;;;;6.63;6.10;;;23.20;99.70;;;;;;6213259;22;20460;-82
2023/08/21 04:34:43;;;;;;;6.77;5.90;;;23.20;99.70;;;;;;6085862;23;20455;-81
2023/08/21 04:38:12;;;;;;;7.70;6.63;;;23.30;99.20;;;;;;6164991;22;20452;-83
2023/08/21 04:45:29;;;;;;;6.30;5.80;;;23.70;99.30;;;;;;6224654;23;20446;-81
2023/08/21 04:48:31;;;;;;;9.90;6.80;;;22.70;99.60;;;;;;6217996;23;20424;-83
2023/08/21 04:51:52;;;;;;;7.20;6.50;;;23.60;99.90;;;;;;6107768;23;20410;-81
2023/08/21 04:55:01;;;;;;;6.73;6.13;;;24.00;99.90;;;;;;6108290;23;21301;-83
2023/08/21 05:01:21;;;;;;;7.67;6.20;;;23.30;99.70;;;;;;6206051;22;20531;-83
2023/08/21 05:10:18;;;;;;;9.23;7.60;;;23.10;99.90;;;;;;6219256;22;20479;-83
2023/08/21 05:17:02;;;;;;;9.60;8.20;;;23.00;99.90;;;;;;6198748;23;20495;-84
2023/08/21 05:20:17;;;;;;;7.60;6.77;;;23.10;99.90;;;;;;6188119;23;20420;-81
2023/08/21 05:25:33;;;;;;;8.73;6.90;;;23.10;99.90;;;;;;6152259;22;20517;-82
2023/08/21 05:34:48;;;;;;;10.33;8.53;;;23.50;99.90;;;;;;6235398;22;20489;-83
2023/08/21 05:43:09;;;;;;;10.80;9.53;;;23.40;99.90;;;;;;6207072;22;20478;-83
2023/08/21 05:46:03;;;;;;;12.73;10.07;;;23.40;99.90;;;;;;6243400;23;20415;-82
2023/08/21 05:55:03;;;;;;;;;;;;;;;;;;;;;
2023/08/21 05:58:41;;;;;;;;;;;;;;;;;;;;;
2023/08/21 06:02:31;;;;;;;;;;;;;;;;;;;;;
2023/08/21 06:06:38;;;;;;;13.73;11.17;;;24.00;99.90;;;;;;6039616;23;20535;-82
2023/08/21 06:12:38;;;;;;;12.63;9.83;;;24.40;99.90;;;;;;6095613;23;20409;-84
2023/08/21 06:15:28;;;;;;;11.60;8.60;;;27.60;96.10;;;;;;5984489;23;21016;-84
2023/08/21 06:22:34;;;;;;;9.50;8.60;;;30.60;84.60;;;;;;5942102;23;20409;-83
2023/08/21 06:28:42;;;;;;;10.30;9.37;;;32.50;73.40;;;;;;6238990;22;20570;-84
2023/08/21 06:31:48;;;;;;;9.80;8.90;;;32.80;70.40;;;;;;6279610;22;20378;-81
2023/08/21 06:35:18;;;;;;;11.60;10.60;;;31.70;74.00;;;;;;6254377;22;21300;-84
2023/08/21 07:09:56;;;;;;;10.60;9.70;;;34.50;66.40;;;;;;6109519;23;20888;-83
2023/08/21 07:13:46;;;;;;;10.50;9.50;;;35.30;62.90;;;;;;6098769;23;20432;-81
2023/08/21 07:17:41;;;;;;;10.07;9.27;;;35.40;60.00;;;;;;5933836;24;20420;-84
2023/08/21 08:32:47;;;;;;;7.30;6.70;;;37.60;49.60;;;;;;6006363;23;20403;-81
2023/08/21 08:51:46;;;;;;;7.17;6.67;;;37.90;48.50;;;;;;5945475;24;20409;-84
2023/08/21 08:55:03;;;;;;;7.93;6.10;;;37.90;46.30;;;;;;5925406;23;20178;-83
2023/08/21 09:06:35;;;;;;;7.03;6.50;;;38.10;46.30;;;;;;6261257;22;20192;-85
2023/08/21 09:14:09;;;;;;;6.93;6.33;;;37.90;46.90;;;;;;6085889;23;20181;-83
2023/08/21 09:24:54;;;;;;;;;;;;;;;;;;;;;
2023/08/21 09:32:05;;;;;;;7.20;6.60;;;38.50;44.80;;;;;;6039420;23;20197;-84
2023/08/21 09:35:35;;;;;;;5.93;5.50;;;38.20;46.60;;;;;;6024676;23;20156;-82
2023/08/21 09:51:09;;;;;;;6.10;5.18;;;38.20;46.20;;;;;;6222776;23;20700;-83
2023/08/21 09:55:13;;;;;;;7.60;5.82;;;37.70;46.10;;;;;;6058401;23;20141;-83
2023/08/21 09:58:46;;;;;;;48.57;13.37;;;39.50;45.70;;;;;;6179476;22;20203;-85
2023/08/21 10:05:50;;;;;;;9.90;6.73;;;35.90;48.90;;;;;;6085958;23;20369;-85
2023/08/21 10:09:32;;;;;;;10.07;7.50;;;34.50;51.40;;;;;;6035616;23;20425;-83
2023/08/21 10:16:11;;;;;;;15.97;7.60;;;33.10;54.30;;;;;;5946446;24;20397;-85
2023/08/21 10:34:30;;;;;;;7.87;7.17;;;36.20;50.20;;;;;;6056082;23;20513;-81
2023/08/21 10:40:27;;;;;;;10.20;8.93;;;36.00;49.20;;;;;;6207448;22;20914;-83
2023/08/21 10:42:54;;;;;;;8.60;7.80;;;35.90;50.10;;;;;;6182143;23;20564;-80
2023/08/21 10:45:21;;;;;;;8.60;7.70;;;35.90;51.20;;;;;;6179802;23;20427;-84
2023/08/21 10:47:51;;;;;;;8.73;7.40;;;36.40;49.70;;;;;;6179257;23;20635;-82
2023/08/21 10:50:18;;;;;;;10.13;9.10;;;35.50;51.40;;;;;;6181027;23;20449;-83
2023/08/21 10:52:45;;;;;;;7.93;7.33;;;35.20;52.20;;;;;;6181048;23;20444;-82
2023/08/21 10:55:14;;;;;;;10.60;9.60;;;35.00;52.30;;;;;;6155601;23;20448;-83
2023/08/21 10:57:41;;;;;;;10.00;8.87;;;35.10;52.10;;;;;;6154227;23;20465;-82
2023/08/21 11:00:11;;;;;;;8.20;7.50;;;35.30;51.40;;;;;;6152558;23;20440;-80
2023/08/21 11:02:40;;;;;;;7.63;6.93;;;35.20;51.10;;;;;;6179316;23;20397;-83
2023/08/21 11:05:08;;;;;;;9.03;8.13;;;36.00;50.90;;;;;;6151824;23;20436;-83
2023/08/21 11:07:47;;;;;;;8.00;7.40;;;35.90;50.20;;;;;;6178973;23;20970;-82
2023/08/21 11:10:18;;;;;;;7.93;7.20;;;35.70;50.00;;;;;;6161942;23;20408;-83
2023/08/21 11:12:55;;;;;;;9.60;8.80;;;35.60;50.30;;;;;;6184323;23;20378;-82
2023/08/21 11:15:24;;;;;;;9.07;8.17;;;35.30;50.30;;;;;;6176371;23;20401;-82
2023/08/21 11:18:09;;;;;;;7.83;7.03;;;34.90;50.90;;;;;;6150543;23;20440;-82
2023/08/21 11:20:36;;;;;;;9.43;8.27;;;34.70;51.90;;;;;;6176978;23;20393;-82
2023/08/21 11:23:07;;;;;;;10.57;9.47;;;34.60;51.90;;;;;;6176152;23;20496;-84
2023/08/21 11:25:37;;;;;;;9.60;8.23;;;34.50;51.70;;;;;;6157306;23;20714;-83
2023/08/21 11:28:05;;;;;;;9.97;9.17;;;34.40;52.30;;;;;;6151423;23;20509;-82
2023/08/21 11:30:35;;;;;;;9.50;8.70;;;34.60;52.60;;;;;;6152029;23;20413;-84
2023/08/21 11:33:10;;;;;;;8.17;7.30;;;34.40;52.70;;;;;;6150655;23;20897;-83
2023/08/21 11:35:38;;;;;;;9.50;8.70;;;34.60;52.50;;;;;;6178440;23;20420;-83
2023/08/21 11:38:06;;;;;;;8.23;7.53;;;34.60;52.00;;;;;;6150533;23;20455;-83
2023/08/21 11:40:35;;;;;;;9.87;8.97;;;34.70;52.20;;;;;;6175883;23;20872;-83
2023/08/21 11:43:05;;;;;;;8.17;7.40;;;35.60;51.50;;;;;;6176481;23;20439;-83
2023/08/21 11:45:31;;;;;;;8.47;7.77;;;35.80;50.50;;;;;;6174417;23;21525;-83
2023/08/21 11:48:06;;;;;;;8.30;7.57;;;35.70;50.70;;;;;;6152485;23;20464;-82
2023/08/21 11:50:33;;;;;;;6.90;6.20;;;35.40;51.00;;;;;;6151307;23;20425;-81
2023/08/21 11:53:02;;;;;;;8.33;7.40;;;35.40;51.30;;;;;;6150915;23;20411;-83
2023/08/21 11:55:29;;;;;;;6.30;5.87;;;36.70;49.60;;;;;;6151516;23;20408;-82
2023/08/21 11:57:57;;;;;;;7.73;7.03;;;36.90;48.90;;;;;;6177179;23;20480;-82
2023/08/21 12:05:55;;;;;;;6.33;5.63;;;36.10;48.80;;;;;;6205872;23;20615;-83
2023/08/21 12:08:22;;;;;;;6.10;5.50;;;35.80;50.40;;;;;;6207962;23;20445;-82
2023/08/21 12:10:54;;;;;;;6.10;4.90;;;35.90;50.50;;;;;;6182484;23;20416;-82
2023/08/21 12:18:41;;;;;;;7.37;4.73;;;35.40;49.50;;;;;;6197439;22;20536;-80
2023/08/21 12:23:50;;;;;;;7.33;6.60;;;35.00;49.80;;;;;;6225100;23;20907;-83
2023/08/21 12:26:23;;;;;;;7.07;5.30;;;35.00;51.30;;;;;;6210490;23;20435;-83
2023/08/21 12:31:52;;;;;;;5.40;4.90;;;34.60;50.40;;;;;;6181999;22;20455;-81
2023/08/21 12:34:19;;;;;;;6.97;4.97;;;35.50;49.60;;;;;;6209052;23;20413;-82
2023/08/21 12:36:49;;;;;;;6.20;5.60;;;35.20;50.40;;;;;;6188974;23;21171;-83
2023/08/21 12:51:03;;;;;;;6.13;4.60;;;36.30;48.50;;;;;;6109855;22;20480;-84
2023/08/21 12:53:34;;;;;;;4.53;4.13;;;36.90;48.10;;;;;;6221126;22;20382;-81
2023/08/21 12:56:04;;;;;;;7.90;3.90;;;35.80;48.60;;;;;;6189853;23;20381;-83
2023/08/21 12:58:56;;;;;;;4.07;3.77;;;35.60;48.80;;;;;;6136866;23;20430;-81
2023/08/21 13:01:40;;;;;;;4.70;4.20;;;35.10;49.20;;;;;;6160878;23;20497;-81
2023/08/21 13:04:09;;;;;;;5.20;3.93;;;35.60;49.70;;;;;;6231627;22;20413;-83
2023/08/21 13:06:39;;;;;;;4.03;3.63;;;35.50;49.90;;;;;;6230175;23;20504;-84
2023/08/21 13:09:07;;;;;;;8.90;3.97;;;35.30;48.80;;;;;;6220159;23;20456;-84
2023/08/21 13:11:36;;;;;;;4.93;3.60;;;35.30;49.20;;;;;;6211844;23;20436;-84
2023/08/21 13:14:08;;;;;;;4.80;2.53;;;35.40;50.10;;;;;;6181367;23;21270;-83
2023/08/21 13:16:37;;;;;;;4.10;3.40;;;35.40;48.40;;;;;;6209235;23;20965;-83
2023/08/21 13:19:06;;;;;;;3.50;3.20;;;35.90;48.20;;;;;;6213496;23;20447;-82
2023/08/21 13:21:36;;;;;;;5.27;3.27;;;35.70;48.70;;;;;;6210277;23;20548;-82
2023/08/21 13:24:05;;;;;;;3.47;3.17;;;35.60;47.90;;;;;;6184378;23;20443;-82
2023/08/21 13:26:33;;;;;;;4.60;3.03;;;35.10;49.00;;;;;;6209935;23;20468;-82
2023/08/21 13:29:00;;;;;;;7.60;3.70;;;35.60;49.10;;;;;;6181564;23;20417;-83
2023/08/21 13:31:31;;;;;;;5.10;3.33;;;35.30;50.20;;;;;;6184066;23;20424;-82
2023/08/21 13:34:08;;;;;;;3.93;3.10;;;35.10;49.00;;;;;;6181954;23;21358;-84
2023/08/21 13:36:36;;;;;;;4.60;2.97;;;35.00;49.60;;;;;;6185235;23;20432;-84
2023/08/21 13:39:05;;;;;;;4.47;3.60;;;34.60;49.90;;;;;;6182416;23;20516;-84
2023/08/21 13:41:33;;;;;;;2.70;2.50;;;34.40;50.00;;;;;;6196053;23;20397;-83
2023/08/21 13:44:00;;;;;;;4.50;3.90;;;34.40;50.40;;;;;;6201773;23;20516;-81
2023/08/21 13:46:29;;;;;;;4.73;2.97;;;33.60;50.70;;;;;;6202255;23;20389;-83
2023/08/21 13:48:59;;;;;;;3.40;3.10;;;34.60;51.30;;;;;;6187828;23;20415;-82
2023/08/21 13:51:31;;;;;;;3.23;2.93;;;34.60;49.10;;;;;;6191011;23;20471;-81
2023/08/21 13:53:59;;;;;;;5.20;3.50;;;34.90;49.10;;;;;;6212105;23;20441;-84
2023/08/21 13:56:25;;;;;;;4.30;3.90;;;34.30;48.20;;;;;;6190697;23;20401;-83
2023/08/21 13:58:52;;;;;;;3.30;3.10;;;34.30;48.10;;;;;;6187294;23;20447;-83
2023/08/21 14:01:19;;;;;;;3.27;2.97;;;34.10;48.20;;;;;;6185083;23;20455;-82
2023/08/21 14:03:45;;;;;;;4.20;3.50;;;33.80;48.60;;;;;;6213774;23;20460;-82
2023/08/21 14:06:12;;;;;;;5.67;2.90;;;34.60;47.90;;;;;;6214913;23;20440;-85
2023/08/21 14:08:39;;;;;;;11.50;3.57;;;34.30;48.10;;;;;;6195304;23;20818;-80
2023/08/21 14:11:06;;;;;;;3.20;2.80;;;34.10;48.10;;;;;;6188062;23;20409;-83
2023/08/21 14:13:34;;;;;;;5.43;3.20;;;34.40;48.90;;;;;;6189089;23;20489;-81
2023/08/21 14:16:01;;;;;;;3.27;2.97;;;34.40;48.30;;;;;;6189111;23;20417;-83
2023/08/21 14:18:28;;;;;;;4.20;2.90;;;34.40;48.20;;;;;;6187283;23;20437;-83
2023/08/21 14:20:55;;;;;;;4.03;3.20;;;34.30;48.20;;;;;;6189421;23;20464;-81
2023/08/21 14:23:22;;;;;;;5.30;4.73;;;34.20;48.30;;;;;;6188631;23;20481;-80
2023/08/21 14:25:49;;;;;;;4.20;3.00;;;34.10;48.70;;;;;;6217039;23;20894;-82
2023/08/21 14:28:16;;;;;;;3.30;2.93;;;34.10;48.80;;;;;;6188914;23;20432;-84
2023/08/21 14:30:44;;;;;;;3.20;2.90;;;34.80;47.30;;;;;;6219490;23;20424;-82
2023/08/21 14:33:11;;;;;;;3.67;2.73;;;34.80;47.30;;;;;;6196604;23;21159;-84
2023/08/21 14:35:38;;;;;;;4.63;3.13;;;34.70;47.80;;;;;;6201845;23;20389;-82
2023/08/21 14:38:06;;;;;;;3.93;3.50;;;34.10;48.10;;;;;;6235176;22;20441;-83
2023/08/21 14:40:32;;;;;;;3.80;3.00;;;33.80;48.40;;;;;;6235356;22;20436;-84
2023/08/21 14:42:59;;;;;;;5.33;3.40;;;33.50;49.20;;;;;;6208676;23;20460;-83
2023/08/21 14:45:27;;;;;;;4.37;2.73;;;33.40;49.50;;;;;;6234477;22;20427;-81
2023/08/21 14:47:53;;;;;;;3.83;3.20;;;33.60;49.50;;;;;;6234858;23;20425;-80
2023/08/21 14:50:21;;;;;;;4.00;3.50;;;33.50;49.00;;;;;;6207805;23;20456;-83
2023/08/21 14:52:48;;;;;;;3.97;3.20;;;33.50;48.80;;;;;;6208336;22;20468;-82
2023/08/21 14:55:16;;;;;;;3.70;3.03;;;33.70;48.50;;;;;;6207381;22;20401;-83
2023/08/21 14:57:43;;;;;;;6.20;2.90;;;33.60;48.50;;;;;;6207597;22;20436;-82
2023/08/21 15:00:10;;;;;;;3.10;2.90;;;33.60;48.90;;;;;;6205328;23;20425;-82
2023/08/21 15:02:38;;;;;;;4.90;2.63;;;33.40;48.90;;;;;;6204214;22;20421;-82
2023/08/21 15:05:06;;;;;;;2.93;2.70;;;33.20;48.90;;;;;;6201699;23;20528;-82
2023/08/21 15:07:33;;;;;;;4.53;3.00;;;33.40;49.10;;;;;;6198726;23;20429;-81
2023/08/21 15:10:01;;;;;;;7.67;2.93;;;33.50;49.10;;;;;;6194689;23;20549;-82
2023/08/21 15:12:28;;;;;;;2.60;2.40;;;33.20;48.70;;;;;;6193197;23;20409;-83
2023/08/21 15:14:59;;;;;;;6.27;2.70;;;33.10;49.20;;;;;;6194799;23;20460;-84
2023/08/21 15:17:27;;;;;;;2.67;2.47;;;33.00;49.40;;;;;;6197223;23;20440;-82
2023/08/21 15:19:57;;;;;;;4.07;3.13;;;33.20;49.40;;;;;;6200295;23;20422;-81
2023/08/21 15:22:24;;;;;;;5.93;3.17;;;33.30;49.30;;;;;;6201414;23;20424;-83
2023/08/21 15:24:51;;;;;;;3.73;2.90;;;33.10;49.30;;;;;;6199632;23;20511;-82
2023/08/21 15:27:18;;;;;;;6.93;2.23;;;32.80;49.40;;;;;;6201713;23;20502;-83
2023/08/21 15:29:44;;;;;;;3.57;2.97;;;32.40;49.60;;;;;;6204604;23;20444;-81
2023/08/21 15:32:12;;;;;;;7.00;2.80;;;32.40;50.30;;;;;;6231246;22;20397;-83
2023/08/21 15:34:46;;;;;;;2.80;2.50;;;32.50;50.50;;;;;;6205648;22;20401;-84
2023/08/21 15:37:23;;;;;;;5.50;2.50;;;32.60;50.50;;;;;;6209193;23;20425;-83
2023/08/21 15:40:03;;;;;;;3.03;2.50;;;33.00;51.10;;;;;;6208059;22;20429;-81
2023/08/21 15:42:43;;;;;;;2.73;2.53;;;32.50;50.40;;;;;;6210317;22;20393;-83
2023/08/21 15:45:10;;;;;;;3.80;2.60;;;32.80;50.90;;;;;;6233012;22;20409;-83
2023/08/21 15:47:48;;;;;;;3.90;2.87;;;32.90;51.10;;;;;;6207762;22;20554;-84
2023/08/21 15:50:27;;;;;;;3.10;2.83;;;32.70;50.30;;;;;;6191901;23;20417;-83
2023/08/21 15:53:14;;;;;;;3.63;2.60;;;32.90;49.60;;;;;;6208769;23;20409;-83
2023/08/21 15:56:04;;;;;;;6.77;3.23;;;33.00;49.80;;;;;;6205533;23;20413;-82
2023/08/21 15:58:45;;;;;;;3.10;2.50;;;32.80;49.70;;;;;;6190135;23;20476;-80
2023/08/21 16:01:22;;;;;;;2.67;2.47;;;31.70;50.60;;;;;;6226710;23;20416;-81
2023/08/21 16:03:58;;;;;;;2.47;2.27;;;32.20;51.00;;;;;;6200311;23;20592;-79
2023/08/21 16:06:35;;;;;;;3.70;2.67;;;32.10;51.90;;;;;;6209432;22;20420;-83
2023/08/21 16:09:05;;;;;;;3.60;2.60;;;32.30;52.50;;;;;;6232998;22;20395;-83
2023/08/21 16:11:46;;;;;;;3.13;2.40;;;32.00;52.20;;;;;;6193872;23;20790;-82
2023/08/21 16:14:17;;;;;;;4.03;2.60;;;32.20;51.80;;;;;;6212196;23;21338;-82
2023/08/21 16:16:54;;;;;;;2.80;2.60;;;31.70;52.70;;;;;;6187099;23;20432;-83
2023/08/21 16:19:31;;;;;;;2.83;2.50;;;32.00;52.60;;;;;;6213126;23;20425;-81
2023/08/21 16:22:07;;;;;;;4.20;3.03;;;32.00;53.50;;;;;;6185577;23;20473;-81
2023/08/21 16:25:02;;;;;;;4.40;3.13;;;32.10;52.80;;;;;;6183760;23;20434;-82
2023/08/21 16:27:29;;;;;;;6.63;3.60;;;31.90;53.10;;;;;;6190480;23;20454;-80
2023/08/21 16:30:04;;;;;;;3.37;2.60;;;32.60;53.60;;;;;;6183994;23;20433;-82
2023/08/21 16:32:38;;;;;;;4.47;2.70;;;32.10;52.40;;;;;;6203660;23;20439;-82
2023/08/21 16:35:15;;;;;;;4.20;2.40;;;31.70;53.00;;;;;;6194644;23;20412;-81
2023/08/21 16:37:43;;;;;;;3.30;2.30;;;32.00;53.30;;;;;;6178809;23;20432;-80
2023/08/21 16:40:18;;;;;;;3.07;2.60;;;31.90;53.70;;;;;;6181711;23;20435;-81
2023/08/21 16:42:55;;;;;;;3.33;2.70;;;31.80;53.50;;;;;;6182162;23;20461;-80
2023/08/21 16:45:25;;;;;;;7.17;2.60;;;31.10;53.80;;;;;;6183026;23;20455;-83
2023/08/21 16:48:08;;;;;;;4.17;2.53;;;31.70;53.80;;;;;;6183580;23;20847;-83
2023/08/21 16:50:46;;;;;;;2.97;2.67;;;31.40;52.70;;;;;;6209225;23;20437;-83
2023/08/21 16:53:23;;;;;;;2.90;2.57;;;31.60;53.10;;;;;;6196679;23;20412;-84
2023/08/21 16:55:50;;;;;;;2.57;2.37;;;31.50;55.10;;;;;;6181865;23;20424;-83
2023/08/21 16:58:17;;;;;;;2.80;2.60;;;31.50;53.80;;;;;;6187836;23;21264;-82
2023/08/21 17:01:31;;;;;;;2.80;2.17;;;31.10;53.80;;;;;;6225069;23;20495;-82
2023/08/21 17:04:04;;;;;;;2.57;2.37;;;31.10;54.30;;;;;;6221453;23;20431;-83
2023/08/21 17:06:52;;;;;;;2.70;2.50;;;31.00;54.30;;;;;;6199369;23;20433;-81
2023/08/21 17:09:29;;;;;;;2.70;2.50;;;30.90;54.40;;;;;;6198533;23;20412;-81
2023/08/21 17:12:10;;;;;;;6.00;2.77;;;30.90;55.20;;;;;;6215836;23;20729;-83
2023/08/21 17:14:53;;;;;;;5.63;2.77;;;31.10;54.90;;;;;;6186464;23;20417;-82
2023/08/21 17:17:23;;;;;;;5.13;2.80;;;30.90;54.10;;;;;;6186222;23;20443;-83
2023/08/21 17:19:58;;;;;;;3.83;2.40;;;30.90;54.40;;;;;;6186845;23;20471;-81
2023/08/21 17:22:25;;;;;;;3.63;2.47;;;31.40;55.10;;;;;;6187036;23;20471;-81
2023/08/21 17:24:55;;;;;;;5.80;3.17;;;31.40;54.80;;;;;;6183451;23;20420;-82
2023/08/21 17:27:43;;;;;;;6.03;3.00;;;31.20;55.10;;;;;;6214208;23;20431;-82
2023/08/21 17:30:27;;;;;;;4.33;2.70;;;31.00;55.30;;;;;;6185861;23;21046;-81
2023/08/21 17:33:17;;;;;;;3.37;2.70;;;30.80;55.40;;;;;;6169986;23;20404;-82
2023/08/21 17:35:50;;;;;;;5.50;2.70;;;30.80;54.60;;;;;;6191278;23;20412;-82
2023/08/21 17:38:20;;;;;;;4.50;3.37;;;30.70;55.70;;;;;;6187895;23;20528;-83
2023/08/21 17:40:50;;;;;;;5.10;4.30;;;30.70;54.80;;;;;;6212032;23;20552;-83
2023/08/21 17:43:19;;;;;;;3.57;3.27;;;30.70;55.50;;;;;;6199631;22;20377;-82
2023/08/21 17:45:49;;;;;;;3.53;3.23;;;30.60;55.20;;;;;;6199987;23;20427;-81
2023/08/21 17:48:21;;;;;;;4.20;3.23;;;30.40;55.10;;;;;;6201195;23;20428;-81
2023/08/21 17:50:48;;;;;;;4.30;2.60;;;30.20;55.90;;;;;;6199411;23;20456;-80
2023/08/21 17:53:15;;;;;;;2.90;2.70;;;30.00;56.80;;;;;;6195540;23;20409;-83
2023/08/21 17:55:50;;;;;;;5.03;2.90;;;30.20;58.40;;;;;;6224090;23;20496;-82
2023/08/21 17:58:27;;;;;;;4.07;3.20;;;29.70;56.90;;;;;;6199478;23;20429;-83
2023/08/21 18:01:01;;;;;;;3.60;3.03;;;30.10;56.80;;;;;;6200950;23;20444;-84
2023/08/21 18:03:58;;;;;;;2.43;2.23;;;29.90;56.40;;;;;;6194703;23;20459;-83
2023/08/21 18:09:19;;;;;;;4.03;3.43;;;29.80;56.50;;;;;;6183461;23;20464;-83
2023/08/21 18:11:52;;;;;;;3.50;2.90;;;29.80;57.70;;;;;;6151851;23;20428;-81
2023/08/21 18:14:27;;;;;;;3.33;2.90;;;30.00;57.40;;;;;;6182870;23;20413;-83
2023/08/21 18:17:12;;;;;;;3.77;2.70;;;29.50;56.50;;;;;;6151196;23;20502;-82
2023/08/21 18:19:49;;;;;;;5.33;3.50;;;29.60;57.70;;;;;;6155063;23;20549;-85
2023/08/21 18:22:22;;;;;;;5.00;2.77;;;29.60;58.80;;;;;;6130730;23;20453;-81
2023/08/21 18:24:57;;;;;;;4.10;2.53;;;29.60;59.10;;;;;;6126458;23;20465;-82
2023/08/21 18:27:27;;;;;;;3.93;2.97;;;29.80;57.50;;;;;;6128114;23;20450;-82
2023/08/21 18:29:54;;;;;;;3.80;3.37;;;29.70;58.90;;;;;;6152535;23;20497;-83
2023/08/21 18:32:50;;;;;;;5.63;3.73;;;29.60;58.70;;;;;;6127435;23;20411;-81
2023/08/21 18:35:21;;;;;;;2.83;2.63;;;29.20;58.70;;;;;;6148368;23;20997;-83
2023/08/21 18:37:55;;;;;;;6.43;3.23;;;29.40;59.50;;;;;;6126202;23;21214;-86
2023/08/21 18:40:28;;;;;;;3.60;3.30;;;29.40;58.90;;;;;;6149563;23;20454;-83
2023/08/21 18:42:55;;;;;;;5.50;3.50;;;28.70;58.00;;;;;;6150992;23;20454;-80
2023/08/21 18:45:28;;;;;;;3.50;3.20;;;28.80;59.00;;;;;;6128580;23;20418;-81
2023/08/21 18:48:04;;;;;;;5.00;4.50;;;29.40;58.60;;;;;;6127305;23;20487;-83
2023/08/21 18:50:43;;;;;;;4.47;3.40;;;29.20;59.10;;;;;;6154527;23;20502;-82
2023/08/21 18:53:18;;;;;;;5.63;4.73;;;28.60;58.10;;;;;;6130665;23;21279;-81
2023/08/21 18:55:51;;;;;;;17.67;15.20;;;29.30;58.50;;;;;;6128733;23;20827;-84
2023/08/21 18:58:28;;;;;;;9.67;8.77;;;29.10;59.70;;;;;;6152203;23;20462;-82
2023/08/21 19:01:09;;;;;;;6.00;5.20;;;29.10;60.10;;;;;;6129501;23;20456;-84
2023/08/21 19:03:42;;;;;;;6.50;4.67;;;29.20;59.10;;;;;;6135626;23;20399;-82
2023/08/21 19:06:11;;;;;;;5.73;4.97;;;29.10;61.20;;;;;;6132754;23;20415;-85
2023/08/21 19:08:50;;;;;;;5.80;4.33;;;28.90;60.80;;;;;;6143472;23;20525;-82
2023/08/21 19:11:18;;;;;;;6.17;4.13;;;28.90;61.40;;;;;;6172504;23;20418;-83
2023/08/21 19:13:51;;;;;;;5.70;3.80;;;28.90;60.90;;;;;;6150748;23;20438;-82
2023/08/21 19:16:20;;;;;;;6.53;4.70;;;29.00;61.20;;;;;;6172664;23;20410;-83
2023/08/21 19:18:50;;;;;;;5.97;4.43;;;29.30;60.60;;;;;;6137420;23;20751;-85
2023/08/21 19:21:20;;;;;;;8.13;7.33;;;29.00;62.30;;;;;;6155808;23;20825;-83